sensor_id;sensor_type;location;lat;lon;timestamp;P1;durP1;ratioP1;P2;durP2;ratioP2
17631;SDS011;8934;51.194;17.150;2023-07-13T00:00:41;5.78;;;5.28;;
17631;SDS011;8934;51.194;17.150;2023-07-13T00:03:29;7.32;;;5.47;;
17631;SDS011;8934;51.194;17.150;2023-07-13T00:06:21;7.85;;;6.57;;
17631;SDS011;8934;51.194;17.150;2023-07-13T00:09:08;8.57;;;6.93;;
17631;SDS011;8934;51.194;17.150;2023-07-13T00:11:57;6.80;;;6.03;;
17631;SDS011;8934;51.194;17.150;2023-07-13T00:14:45;7.03;;;5.90;;
17631;SDS011;8934;51.194;17.150;2023-07-13T00:17:32;8.35;;;6.05;;
17631;SDS011;8934;51.194;17.150;2023-07-13T00:20:21;7.25;;;6.18;;
17631;SDS011;8934;51.194;17.150;2023-07-13T00:23:10;8.98;;;6.35;;
17631;SDS011;8934;51.194;17.150;2023-07-13T00:25:58;7.10;;;5.95;;
17631;SDS011;8934;51.194;17.150;2023-07-13T00:28:48;6.72;;;6.13;;
17631;SDS011;8934;51.194;17.150;2023-07-13T00:31:36;6.28;;;5.68;;
17631;SDS011;8934;51.194;17.150;2023-07-13T00:34:24;6.93;;;6.22;;
17631;SDS011;8934;51.194;17.150;2023-07-13T00:37:11;8.57;;;6.72;;
17631;SDS011;8934;51.194;17.150;2023-07-13T00:39:59;10.70;;;7.47;;
17631;SDS011;8934;51.194;17.150;2023-07-13T00:42:46;8.48;;;6.85;;
17631;SDS011;8934;51.194;17.150;2023-07-13T00:49:02;8.40;;;6.55;;
17631;SDS011;8934;51.194;17.150;2023-07-13T00:51:53;8.75;;;6.90;;
17631;SDS011;8934;51.194;17.150;2023-07-13T00:54:45;7.00;;;6.30;;
17631;SDS011;8934;51.194;17.150;2023-07-13T00:57:34;6.93;;;6.32;;
17631;SDS011;8934;51.194;17.150;2023-07-13T01:00:21;6.93;;;6.22;;
17631;SDS011;8934;51.194;17.150;2023-07-13T01:03:12;7.28;;;6.53;;
17631;SDS011;8934;51.194;17.150;2023-07-13T01:06:00;7.78;;;6.38;;
17631;SDS011;8934;51.194;17.150;2023-07-13T01:08:49;8.40;;;6.63;;
17631;SDS011;8934;51.194;17.150;2023-07-13T01:11:37;7.65;;;6.82;;
17631;SDS011;8934;51.194;17.150;2023-07-13T01:14:25;8.27;;;7.32;;
17631;SDS011;8934;51.194;17.150;2023-07-13T01:17:13;8.05;;;6.50;;
17631;SDS011;8934;51.194;17.150;2023-07-13T01:20:01;8.52;;;6.55;;
17631;SDS011;8934;51.194;17.150;2023-07-13T01:22:51;7.10;;;6.38;;
17631;SDS011;8934;51.194;17.150;2023-07-13T01:25:39;7.45;;;6.75;;
17631;SDS011;8934;51.194;17.150;2023-07-13T01:28:27;9.23;;;6.95;;
17631;SDS011;8934;51.194;17.150;2023-07-13T01:31:17;7.60;;;6.78;;
17631;SDS011;8934;51.194;17.150;2023-07-13T01:34:05;9.88;;;8.02;;
17631;SDS011;8934;51.194;17.150;2023-07-13T01:36:55;12.23;;;10.93;;
17631;SDS011;8934;51.194;17.150;2023-07-13T01:39:44;10.20;;;8.32;;
17631;SDS011;8934;51.194;17.150;2023-07-13T01:42:32;9.35;;;8.32;;
17631;SDS011;8934;51.194;17.150;2023-07-13T01:45:20;9.52;;;7.35;;
17631;SDS011;8934;51.194;17.150;2023-07-13T01:48:07;9.25;;;8.32;;
17631;SDS011;8934;51.194;17.150;2023-07-13T01:50:55;8.43;;;7.38;;
17631;SDS011;8934;51.194;17.150;2023-07-13T01:53:42;11.32;;;9.70;;
17631;SDS011;8934;51.194;17.150;2023-07-13T01:56:31;9.15;;;7.82;;
17631;SDS011;8934;51.194;17.150;2023-07-13T01:59:19;8.80;;;7.95;;
17631;SDS011;8934;51.194;17.150;2023-07-13T02:02:06;9.70;;;8.52;;
17631;SDS011;8934;51.194;17.150;2023-07-13T02:04:54;10.80;;;8.73;;
17631;SDS011;8934;51.194;17.150;2023-07-13T02:07:42;10.05;;;8.63;;
17631;SDS011;8934;51.194;17.150;2023-07-13T02:10:30;11.20;;;10.00;;
17631;SDS011;8934;51.194;17.150;2023-07-13T02:13:19;13.52;;;11.23;;
17631;SDS011;8934;51.194;17.150;2023-07-13T02:16:07;10.65;;;9.27;;
17631;SDS011;8934;51.194;17.150;2023-07-13T02:18:54;9.40;;;8.43;;
17631;SDS011;8934;51.194;17.150;2023-07-13T02:21:42;9.48;;;7.68;;
17631;SDS011;8934;51.194;17.150;2023-07-13T02:24:30;8.40;;;7.53;;
17631;SDS011;8934;51.194;17.150;2023-07-13T02:27:17;8.23;;;7.43;;
17631;SDS011;8934;51.194;17.150;2023-07-13T02:30:09;10.02;;;8.45;;
17631;SDS011;8934;51.194;17.150;2023-07-13T02:32:58;8.15;;;7.35;;
17631;SDS011;8934;51.194;17.150;2023-07-13T02:35:46;8.38;;;7.35;;
17631;SDS011;8934;51.194;17.150;2023-07-13T02:38:33;8.98;;;7.72;;
17631;SDS011;8934;51.194;17.150;2023-07-13T02:41:22;10.88;;;8.43;;
17631;SDS011;8934;51.194;17.150;2023-07-13T02:44:11;8.10;;;7.30;;
17631;SDS011;8934;51.194;17.150;2023-07-13T02:47:00;9.40;;;7.72;;
17631;SDS011;8934;51.194;17.150;2023-07-13T02:49:48;9.48;;;7.22;;
17631;SDS011;8934;51.194;17.150;2023-07-13T02:52:36;8.02;;;7.22;;
17631;SDS011;8934;51.194;17.150;2023-07-13T02:55:24;8.98;;;7.10;;
17631;SDS011;8934;51.194;17.150;2023-07-13T02:58:11;8.63;;;7.72;;
17631;SDS011;8934;51.194;17.150;2023-07-13T03:01:05;8.30;;;7.53;;
17631;SDS011;8934;51.194;17.150;2023-07-13T03:03:56;10.18;;;9.15;;
17631;SDS011;8934;51.194;17.150;2023-07-13T03:06:43;9.32;;;8.30;;
17631;SDS011;8934;51.194;17.150;2023-07-13T03:09:32;10.93;;;8.77;;
17631;SDS011;8934;51.194;17.150;2023-07-13T03:12:23;11.00;;;9.90;;
17631;SDS011;8934;51.194;17.150;2023-07-13T03:15:12;10.93;;;9.65;;
17631;SDS011;8934;51.194;17.150;2023-07-13T03:18:02;10.48;;;9.25;;
17631;SDS011;8934;51.194;17.150;2023-07-13T03:20:52;10.00;;;8.95;;
17631;SDS011;8934;51.194;17.150;2023-07-13T03:23:40;9.77;;;8.68;;
17631;SDS011;8934;51.194;17.150;2023-07-13T03:26:28;10.40;;;9.27;;
17631;SDS011;8934;51.194;17.150;2023-07-13T03:29:16;10.95;;;9.85;;
17631;SDS011;8934;51.194;17.150;2023-07-13T03:32:04;12.48;;;11.18;;
17631;SDS011;8934;51.194;17.150;2023-07-13T03:34:53;14.30;;;9.60;;
17631;SDS011;8934;51.194;17.150;2023-07-13T03:37:42;13.43;;;11.60;;
17631;SDS011;8934;51.194;17.150;2023-07-13T03:40:36;14.75;;;11.07;;
17631;SDS011;8934;51.194;17.150;2023-07-13T03:43:23;11.80;;;9.45;;
17631;SDS011;8934;51.194;17.150;2023-07-13T03:46:11;9.20;;;8.30;;
17631;SDS011;8934;51.194;17.150;2023-07-13T03:48:59;11.20;;;8.80;;
17631;SDS011;8934;51.194;17.150;2023-07-13T03:51:48;10.52;;;8.77;;
17631;SDS011;8934;51.194;17.150;2023-07-13T03:54:40;9.85;;;8.93;;
17631;SDS011;8934;51.194;17.150;2023-07-13T03:57:27;11.80;;;8.93;;
17631;SDS011;8934;51.194;17.150;2023-07-13T04:00:16;10.52;;;9.40;;
17631;SDS011;8934;51.194;17.150;2023-07-13T04:03:04;10.57;;;9.23;;
17631;SDS011;8934;51.194;17.150;2023-07-13T04:05:53;11.85;;;10.60;;
17631;SDS011;8934;51.194;17.150;2023-07-13T04:08:41;12.68;;;9.82;;
17631;SDS011;8934;51.194;17.150;2023-07-13T04:11:31;10.38;;;9.38;;
17631;SDS011;8934;51.194;17.150;2023-07-13T04:14:19;12.13;;;10.35;;
17631;SDS011;8934;51.194;17.150;2023-07-13T04:17:06;13.38;;;11.18;;
17631;SDS011;8934;51.194;17.150;2023-07-13T04:19:54;13.07;;;10.32;;
17631;SDS011;8934;51.194;17.150;2023-07-13T04:22:41;10.68;;;9.40;;
17631;SDS011;8934;51.194;17.150;2023-07-13T04:25:29;11.65;;;9.25;;
17631;SDS011;8934;51.194;17.150;2023-07-13T04:28:18;9.23;;;7.85;;
17631;SDS011;8934;51.194;17.150;2023-07-13T04:31:06;11.90;;;9.00;;
17631;SDS011;8934;51.194;17.150;2023-07-13T04:33:54;10.82;;;8.30;;
17631;SDS011;8934;51.194;17.150;2023-07-13T04:36:41;6.72;;;6.03;;
17631;SDS011;8934;51.194;17.150;2023-07-13T04:39:29;7.97;;;5.38;;
17631;SDS011;8934;51.194;17.150;2023-07-13T04:42:17;6.18;;;4.35;;
17631;SDS011;8934;51.194;17.150;2023-07-13T04:45:06;6.95;;;4.10;;
17631;SDS011;8934;51.194;17.150;2023-07-13T04:47:56;9.52;;;4.85;;
17631;SDS011;8934;51.194;17.150;2023-07-13T04:50:43;7.53;;;4.75;;
17631;SDS011;8934;51.194;17.150;2023-07-13T04:53:32;5.50;;;4.72;;
17631;SDS011;8934;51.194;17.150;2023-07-13T04:56:20;7.00;;;5.10;;
17631;SDS011;8934;51.194;17.150;2023-07-13T04:59:08;9.00;;;5.50;;
17631;SDS011;8934;51.194;17.150;2023-07-13T05:01:56;9.55;;;6.22;;
17631;SDS011;8934;51.194;17.150;2023-07-13T05:04:46;7.85;;;6.22;;
17631;SDS011;8934;51.194;17.150;2023-07-13T05:07:33;11.80;;;6.22;;
17631;SDS011;8934;51.194;17.150;2023-07-13T05:10:21;10.15;;;5.75;;
17631;SDS011;8934;51.194;17.150;2023-07-13T05:13:09;9.63;;;6.13;;
17631;SDS011;8934;51.194;17.150;2023-07-13T05:15:59;8.30;;;6.05;;
17631;SDS011;8934;51.194;17.150;2023-07-13T05:18:49;9.50;;;6.68;;
17631;SDS011;8934;51.194;17.150;2023-07-13T05:21:37;6.78;;;5.60;;
17631;SDS011;8934;51.194;17.150;2023-07-13T05:24:24;8.23;;;5.18;;
17631;SDS011;8934;51.194;17.150;2023-07-13T05:27:12;8.93;;;5.60;;
17631;SDS011;8934;51.194;17.150;2023-07-13T05:30:00;6.00;;;5.18;;
17631;SDS011;8934;51.194;17.150;2023-07-13T05:32:48;11.00;;;5.90;;
17631;SDS011;8934;51.194;17.150;2023-07-13T05:35:37;9.60;;;6.20;;
17631;SDS011;8934;51.194;17.150;2023-07-13T05:38:25;7.10;;;6.05;;
17631;SDS011;8934;51.194;17.150;2023-07-13T05:41:13;10.07;;;5.97;;
17631;SDS011;8934;51.194;17.150;2023-07-13T05:44:00;8.48;;;5.55;;
17631;SDS011;8934;51.194;17.150;2023-07-13T05:46:47;9.85;;;6.25;;
17631;SDS011;8934;51.194;17.150;2023-07-13T05:49:35;8.73;;;6.45;;
17631;SDS011;8934;51.194;17.150;2023-07-13T05:52:25;7.95;;;6.28;;
17631;SDS011;8934;51.194;17.150;2023-07-13T05:55:12;7.93;;;6.47;;
17631;SDS011;8934;51.194;17.150;2023-07-13T05:58:00;8.02;;;6.10;;
17631;SDS011;8934;51.194;17.150;2023-07-13T06:00:48;8.05;;;5.82;;
17631;SDS011;8934;51.194;17.150;2023-07-13T06:03:35;8.63;;;6.45;;
17631;SDS011;8934;51.194;17.150;2023-07-13T06:06:24;8.43;;;5.70;;
17631;SDS011;8934;51.194;17.150;2023-07-13T06:09:13;7.43;;;5.45;;
17631;SDS011;8934;51.194;17.150;2023-07-13T06:12:01;6.13;;;4.85;;
17631;SDS011;8934;51.194;17.150;2023-07-13T06:14:50;8.38;;;5.68;;
17631;SDS011;8934;51.194;17.150;2023-07-13T06:17:37;7.72;;;5.40;;
17631;SDS011;8934;51.194;17.150;2023-07-13T06:20:25;7.85;;;5.90;;
17631;SDS011;8934;51.194;17.150;2023-07-13T06:23:12;7.03;;;4.97;;
17631;SDS011;8934;51.194;17.150;2023-07-13T06:26:01;5.88;;;4.47;;
17631;SDS011;8934;51.194;17.150;2023-07-13T06:28:49;6.93;;;4.18;;
17631;SDS011;8934;51.194;17.150;2023-07-13T06:31:37;5.63;;;3.75;;
17631;SDS011;8934;51.194;17.150;2023-07-13T06:34:24;6.85;;;3.97;;
17631;SDS011;8934;51.194;17.150;2023-07-13T06:37:12;5.13;;;4.20;;
17631;SDS011;8934;51.194;17.150;2023-07-13T06:39:59;6.00;;;4.10;;
17631;SDS011;8934;51.194;17.150;2023-07-13T06:42:48;5.40;;;4.22;;
17631;SDS011;8934;51.194;17.150;2023-07-13T06:45:40;4.72;;;3.67;;
17631;SDS011;8934;51.194;17.150;2023-07-13T06:48:28;5.47;;;4.38;;
17631;SDS011;8934;51.194;17.150;2023-07-13T06:51:16;4.53;;;3.80;;
17631;SDS011;8934;51.194;17.150;2023-07-13T06:54:04;4.28;;;3.60;;
17631;SDS011;8934;51.194;17.150;2023-07-13T06:56:51;4.88;;;3.80;;
17631;SDS011;8934;51.194;17.150;2023-07-13T06:59:40;3.78;;;3.28;;
17631;SDS011;8934;51.194;17.150;2023-07-13T07:02:28;4.03;;;3.05;;
17631;SDS011;8934;51.194;17.150;2023-07-13T07:05:16;4.35;;;2.85;;
17631;SDS011;8934;51.194;17.150;2023-07-13T07:08:04;3.75;;;3.03;;
17631;SDS011;8934;51.194;17.150;2023-07-13T07:10:51;5.60;;;3.58;;
17631;SDS011;8934;51.194;17.150;2023-07-13T07:13:40;4.80;;;3.65;;
17631;SDS011;8934;51.194;17.150;2023-07-13T07:16:29;7.18;;;4.32;;
17631;SDS011;8934;51.194;17.150;2023-07-13T07:19:17;6.97;;;4.47;;
17631;SDS011;8934;51.194;17.150;2023-07-13T07:22:04;5.30;;;4.78;;
17631;SDS011;8934;51.194;17.150;2023-07-13T07:24:52;8.70;;;5.93;;
17631;SDS011;8934;51.194;17.150;2023-07-13T07:27:41;8.35;;;5.65;;
17631;SDS011;8934;51.194;17.150;2023-07-13T07:30:31;7.18;;;6.00;;
17631;SDS011;8934;51.194;17.150;2023-07-13T07:33:23;9.55;;;6.35;;
17631;SDS011;8934;51.194;17.150;2023-07-13T07:36:10;7.60;;;6.40;;
17631;SDS011;8934;51.194;17.150;2023-07-13T07:39:01;7.38;;;6.35;;
17631;SDS011;8934;51.194;17.150;2023-07-13T07:41:49;8.38;;;6.40;;
17631;SDS011;8934;51.194;17.150;2023-07-13T07:44:40;8.25;;;6.93;;
17631;SDS011;8934;51.194;17.150;2023-07-13T07:47:28;8.18;;;7.25;;
17631;SDS011;8934;51.194;17.150;2023-07-13T07:50:17;7.72;;;6.82;;
17631;SDS011;8934;51.194;17.150;2023-07-13T07:53:05;10.57;;;7.40;;
17631;SDS011;8934;51.194;17.150;2023-07-13T07:55:56;8.82;;;7.35;;
17631;SDS011;8934;51.194;17.150;2023-07-13T07:59:03;11.48;;;7.43;;
17631;SDS011;8934;51.194;17.150;2023-07-13T08:01:54;7.95;;;7.15;;
17631;SDS011;8934;51.194;17.150;2023-07-13T08:04:44;9.50;;;6.97;;
17631;SDS011;8934;51.194;17.150;2023-07-13T08:07:36;8.75;;;6.78;;
17631;SDS011;8934;51.194;17.150;2023-07-13T08:10:24;7.05;;;6.43;;
17631;SDS011;8934;51.194;17.150;2023-07-13T08:13:12;7.43;;;6.55;;
17631;SDS011;8934;51.194;17.150;2023-07-13T08:16:00;8.00;;;6.95;;
17631;SDS011;8934;51.194;17.150;2023-07-13T08:18:48;6.88;;;6.05;;
17631;SDS011;8934;51.194;17.150;2023-07-13T08:21:36;6.97;;;6.28;;
17631;SDS011;8934;51.194;17.150;2023-07-13T08:24:25;7.97;;;6.35;;
17631;SDS011;8934;51.194;17.150;2023-07-13T08:27:13;6.82;;;6.13;;
17631;SDS011;8934;51.194;17.150;2023-07-13T08:30:00;8.63;;;6.57;;
17631;SDS011;8934;51.194;17.150;2023-07-13T08:32:49;6.55;;;5.20;;
17631;SDS011;8934;51.194;17.150;2023-07-13T08:35:36;4.97;;;4.55;;
17631;SDS011;8934;51.194;17.150;2023-07-13T08:38:23;6.55;;;4.30;;
17631;SDS011;8934;51.194;17.150;2023-07-13T08:41:13;6.15;;;4.70;;
17631;SDS011;8934;51.194;17.150;2023-07-13T08:44:03;6.10;;;4.63;;
17631;SDS011;8934;51.194;17.150;2023-07-13T08:47:00;5.45;;;4.63;;
17631;SDS011;8934;51.194;17.150;2023-07-13T08:49:49;5.57;;;4.40;;
17631;SDS011;8934;51.194;17.150;2023-07-13T08:52:38;13.50;;;5.10;;
17631;SDS011;8934;51.194;17.150;2023-07-13T08:55:29;5.78;;;4.88;;
17631;SDS011;8934;51.194;17.150;2023-07-13T08:58:23;6.80;;;4.82;;
17631;SDS011;8934;51.194;17.150;2023-07-13T09:01:15;6.03;;;4.65;;
17631;SDS011;8934;51.194;17.150;2023-07-13T09:04:05;5.78;;;5.15;;
17631;SDS011;8934;51.194;17.150;2023-07-13T09:06:58;5.07;;;4.32;;
17631;SDS011;8934;51.194;17.150;2023-07-13T09:09:51;6.85;;;5.97;;
17631;SDS011;8934;51.194;17.150;2023-07-13T09:12:45;5.68;;;5.10;;
17631;SDS011;8934;51.194;17.150;2023-07-13T09:15:35;5.38;;;4.75;;
17631;SDS011;8934;51.194;17.150;2023-07-13T09:18:26;4.82;;;4.28;;
17631;SDS011;8934;51.194;17.150;2023-07-13T09:21:15;5.82;;;4.25;;
17631;SDS011;8934;51.194;17.150;2023-07-13T09:24:17;6.80;;;4.78;;
17631;SDS011;8934;51.194;17.150;2023-07-13T09:27:22;6.47;;;4.80;;
17631;SDS011;8934;51.194;17.150;2023-07-13T09:30:20;6.88;;;4.45;;
17631;SDS011;8934;51.194;17.150;2023-07-13T09:33:18;5.63;;;4.00;;
17631;SDS011;8934;51.194;17.150;2023-07-13T09:36:15;4.07;;;3.67;;
17631;SDS011;8934;51.194;17.150;2023-07-13T09:39:09;5.97;;;4.20;;
17631;SDS011;8934;51.194;17.150;2023-07-13T09:42:01;3.90;;;3.50;;
17631;SDS011;8934;51.194;17.150;2023-07-13T09:45:01;3.53;;;2.80;;
17631;SDS011;8934;51.194;17.150;2023-07-13T09:47:50;5.00;;;3.35;;
17631;SDS011;8934;51.194;17.150;2023-07-13T09:50:48;4.13;;;3.13;;
17631;SDS011;8934;51.194;17.150;2023-07-13T09:53:36;4.32;;;3.10;;
17631;SDS011;8934;51.194;17.150;2023-07-13T09:56:26;7.68;;;3.70;;
17631;SDS011;8934;51.194;17.150;2023-07-13T09:59:19;3.90;;;3.50;;
17631;SDS011;8934;51.194;17.150;2023-07-13T10:02:22;3.92;;;3.63;;
17631;SDS011;8934;51.194;17.150;2023-07-13T10:05:11;4.18;;;3.67;;
17631;SDS011;8934;51.194;17.150;2023-07-13T10:08:03;6.18;;;3.85;;
17631;SDS011;8934;51.194;17.150;2023-07-13T10:10:53;5.60;;;3.70;;
17631;SDS011;8934;51.194;17.150;2023-07-13T10:13:48;6.28;;;4.20;;
17631;SDS011;8934;51.194;17.150;2023-07-13T10:16:38;5.40;;;4.22;;
17631;SDS011;8934;51.194;17.150;2023-07-13T10:19:29;4.07;;;3.67;;
17631;SDS011;8934;51.194;17.150;2023-07-13T10:22:22;5.05;;;3.80;;
17631;SDS011;8934;51.194;17.150;2023-07-13T10:25:17;5.38;;;4.03;;
17631;SDS011;8934;51.194;17.150;2023-07-13T10:28:11;4.47;;;3.13;;
17631;SDS011;8934;51.194;17.150;2023-07-13T10:31:10;4.15;;;2.70;;
17631;SDS011;8934;51.194;17.150;2023-07-13T10:34:01;5.97;;;3.30;;
17631;SDS011;8934;51.194;17.150;2023-07-13T10:36:51;5.45;;;2.72;;
17631;SDS011;8934;51.194;17.150;2023-07-13T10:39:39;2.63;;;2.42;;
17631;SDS011;8934;51.194;17.150;2023-07-13T10:42:29;4.40;;;2.78;;
17631;SDS011;8934;51.194;17.150;2023-07-13T10:45:21;3.10;;;1.90;;
17631;SDS011;8934;51.194;17.150;2023-07-13T10:48:10;3.58;;;2.17;;
17631;SDS011;8934;51.194;17.150;2023-07-13T10:51:01;3.05;;;1.88;;
17631;SDS011;8934;51.194;17.150;2023-07-13T10:54:11;3.63;;;2.15;;
17631;SDS011;8934;51.194;17.150;2023-07-13T11:00:14;3.40;;;2.47;;
17631;SDS011;8934;51.194;17.150;2023-07-13T11:03:04;2.65;;;2.15;;
17631;SDS011;8934;51.194;17.150;2023-07-13T11:06:06;3.28;;;2.30;;
17631;SDS011;8934;51.194;17.150;2023-07-13T11:08:56;2.88;;;1.80;;
17631;SDS011;8934;51.194;17.150;2023-07-13T11:11:46;3.60;;;2.22;;
17631;SDS011;8934;51.194;17.150;2023-07-13T11:14:34;1.88;;;1.67;;
17631;SDS011;8934;51.194;17.150;2023-07-13T11:17:33;3.50;;;2.08;;
17631;SDS011;8934;51.194;17.150;2023-07-13T11:20:33;5.00;;;1.90;;
17631;SDS011;8934;51.194;17.150;2023-07-13T11:23:29;2.35;;;1.80;;
17631;SDS011;8934;51.194;17.150;2023-07-13T11:29:33;3.28;;;1.98;;
17631;SDS011;8934;51.194;17.150;2023-07-13T11:32:30;2.72;;;2.08;;
17631;SDS011;8934;51.194;17.150;2023-07-13T11:35:21;2.65;;;2.05;;
17631;SDS011;8934;51.194;17.150;2023-07-13T11:38:14;2.22;;;2.00;;
17631;SDS011;8934;51.194;17.150;2023-07-13T11:41:07;3.90;;;2.20;;
17631;SDS011;8934;51.194;17.150;2023-07-13T11:44:12;2.53;;;2.05;;
17631;SDS011;8934;51.194;17.150;2023-07-13T11:47:07;3.03;;;2.10;;
17631;SDS011;8934;51.194;17.150;2023-07-13T11:49:58;4.07;;;2.00;;
17631;SDS011;8934;51.194;17.150;2023-07-13T11:52:46;3.53;;;2.40;;
17631;SDS011;8934;51.194;17.150;2023-07-13T11:55:37;4.70;;;2.25;;
17631;SDS011;8934;51.194;17.150;2023-07-13T11:58:25;2.58;;;1.90;;
17631;SDS011;8934;51.194;17.150;2023-07-13T12:01:18;2.65;;;2.00;;
17631;SDS011;8934;51.194;17.150;2023-07-13T12:04:09;2.60;;;1.80;;
17631;SDS011;8934;51.194;17.150;2023-07-13T12:07:14;3.60;;;2.38;;
17631;SDS011;8934;51.194;17.150;2023-07-13T12:10:03;2.15;;;1.95;;
17631;SDS011;8934;51.194;17.150;2023-07-13T12:13:05;4.90;;;2.00;;
17631;SDS011;8934;51.194;17.150;2023-07-13T12:15:53;2.15;;;1.70;;
17631;SDS011;8934;51.194;17.150;2023-07-13T12:18:41;3.05;;;1.80;;
17631;SDS011;8934;51.194;17.150;2023-07-13T12:21:32;3.05;;;2.20;;
17631;SDS011;8934;51.194;17.150;2023-07-13T12:24:23;4.30;;;1.75;;
17631;SDS011;8934;51.194;17.150;2023-07-13T12:27:18;3.72;;;1.92;;
17631;SDS011;8934;51.194;17.150;2023-07-13T12:30:20;2.58;;;1.90;;
17631;SDS011;8934;51.194;17.150;2023-07-13T12:33:12;4.07;;;2.03;;
17631;SDS011;8934;51.194;17.150;2023-07-13T12:36:00;2.80;;;2.03;;
17631;SDS011;8934;51.194;17.150;2023-07-13T12:38:51;3.40;;;1.85;;
17631;SDS011;8934;51.194;17.150;2023-07-13T12:41:40;2.95;;;2.65;;
17631;SDS011;8934;51.194;17.150;2023-07-13T12:44:31;2.85;;;1.90;;
17631;SDS011;8934;51.194;17.150;2023-07-13T12:47:20;3.15;;;2.33;;
17631;SDS011;8934;51.194;17.150;2023-07-13T12:50:12;4.47;;;2.15;;
17631;SDS011;8934;51.194;17.150;2023-07-13T12:53:02;2.17;;;1.75;;
17631;SDS011;8934;51.194;17.150;2023-07-13T12:55:54;5.28;;;2.17;;
17631;SDS011;8934;51.194;17.150;2023-07-13T12:58:46;4.88;;;2.30;;
17631;SDS011;8934;51.194;17.150;2023-07-13T13:01:40;2.63;;;1.88;;
17631;SDS011;8934;51.194;17.150;2023-07-13T13:04:29;3.35;;;1.90;;
17631;SDS011;8934;51.194;17.150;2023-07-13T13:07:17;2.33;;;2.13;;
17631;SDS011;8934;51.194;17.150;2023-07-13T13:10:10;2.47;;;1.80;;
17631;SDS011;8934;51.194;17.150;2023-07-13T13:12:59;2.20;;;1.90;;
17631;SDS011;8934;51.194;17.150;2023-07-13T13:15:48;6.75;;;1.85;;
17631;SDS011;8934;51.194;17.150;2023-07-13T13:18:36;3.10;;;1.85;;
17631;SDS011;8934;51.194;17.150;2023-07-13T13:21:24;3.70;;;1.98;;
17631;SDS011;8934;51.194;17.150;2023-07-13T13:24:12;2.95;;;1.85;;
17631;SDS011;8934;51.194;17.150;2023-07-13T13:27:02;4.35;;;1.77;;
17631;SDS011;8934;51.194;17.150;2023-07-13T13:29:50;2.58;;;1.60;;
17631;SDS011;8934;51.194;17.150;2023-07-13T13:32:40;5.65;;;2.33;;
17631;SDS011;8934;51.194;17.150;2023-07-13T13:35:28;2.90;;;1.90;;
17631;SDS011;8934;51.194;17.150;2023-07-13T13:38:16;2.60;;;1.90;;
17631;SDS011;8934;51.194;17.150;2023-07-13T13:41:07;13.07;;;2.08;;
17631;SDS011;8934;51.194;17.150;2023-07-13T13:43:57;3.47;;;2.22;;
17631;SDS011;8934;51.194;17.150;2023-07-13T13:46:45;2.60;;;1.65;;
17631;SDS011;8934;51.194;17.150;2023-07-13T13:49:36;2.35;;;1.67;;
17631;SDS011;8934;51.194;17.150;2023-07-13T13:52:24;6.07;;;2.10;;
17631;SDS011;8934;51.194;17.150;2023-07-13T13:55:13;2.80;;;1.67;;
17631;SDS011;8934;51.194;17.150;2023-07-13T13:58:01;2.25;;;1.80;;
17631;SDS011;8934;51.194;17.150;2023-07-13T14:00:49;2.20;;;1.25;;
17631;SDS011;8934;51.194;17.150;2023-07-13T14:03:38;2.35;;;1.13;;
17631;SDS011;8934;51.194;17.150;2023-07-13T14:06:27;1.27;;;1.17;;
17631;SDS011;8934;51.194;17.150;2023-07-13T14:09:16;1.92;;;1.50;;
17631;SDS011;8934;51.194;17.150;2023-07-13T14:12:05;3.53;;;1.63;;
17631;SDS011;8934;51.194;17.150;2023-07-13T14:14:57;2.95;;;1.27;;
17631;SDS011;8934;51.194;17.150;2023-07-13T14:17:45;1.50;;;1.23;;
17631;SDS011;8934;51.194;17.150;2023-07-13T14:20:35;3.08;;;1.73;;
17631;SDS011;8934;51.194;17.150;2023-07-13T14:23:24;2.65;;;1.52;;
17631;SDS011;8934;51.194;17.150;2023-07-13T14:26:13;3.35;;;1.80;;
17631;SDS011;8934;51.194;17.150;2023-07-13T14:29:04;3.30;;;1.58;;
17631;SDS011;8934;51.194;17.150;2023-07-13T14:32:00;3.05;;;1.85;;
17631;SDS011;8934;51.194;17.150;2023-07-13T14:34:47;2.35;;;1.63;;
17631;SDS011;8934;51.194;17.150;2023-07-13T14:37:35;1.63;;;1.27;;
17631;SDS011;8934;51.194;17.150;2023-07-13T14:40:25;3.17;;;1.38;;
17631;SDS011;8934;51.194;17.150;2023-07-13T14:43:16;2.67;;;1.95;;
17631;SDS011;8934;51.194;17.150;2023-07-13T14:46:03;4.07;;;1.63;;
17631;SDS011;8934;51.194;17.150;2023-07-13T14:48:51;1.95;;;1.30;;
17631;SDS011;8934;51.194;17.150;2023-07-13T14:51:41;3.85;;;1.50;;
17631;SDS011;8934;51.194;17.150;2023-07-13T14:54:29;3.63;;;1.50;;
17631;SDS011;8934;51.194;17.150;2023-07-13T14:57:19;3.50;;;1.70;;
17631;SDS011;8934;51.194;17.150;2023-07-13T15:00:12;1.77;;;1.38;;
17631;SDS011;8934;51.194;17.150;2023-07-13T15:03:02;3.47;;;1.42;;
17631;SDS011;8934;51.194;17.150;2023-07-13T15:05:52;3.00;;;1.52;;
17631;SDS011;8934;51.194;17.150;2023-07-13T15:08:40;2.45;;;1.40;;
17631;SDS011;8934;51.194;17.150;2023-07-13T15:11:28;2.53;;;1.42;;
17631;SDS011;8934;51.194;17.150;2023-07-13T15:14:17;2.35;;;1.23;;
17631;SDS011;8934;51.194;17.150;2023-07-13T15:17:05;4.88;;;1.98;;
17631;SDS011;8934;51.194;17.150;2023-07-13T15:20:03;3.13;;;2.40;;
17631;SDS011;8934;51.194;17.150;2023-07-13T15:22:53;3.63;;;2.20;;
17631;SDS011;8934;51.194;17.150;2023-07-13T15:25:41;2.85;;;1.92;;
17631;SDS011;8934;51.194;17.150;2023-07-13T15:28:29;3.33;;;2.20;;
17631;SDS011;8934;51.194;17.150;2023-07-13T15:31:19;6.13;;;2.50;;
17631;SDS011;8934;51.194;17.150;2023-07-13T15:34:10;2.53;;;2.28;;
17631;SDS011;8934;51.194;17.150;2023-07-13T15:36:59;2.72;;;1.90;;
17631;SDS011;8934;51.194;17.150;2023-07-13T15:39:46;2.45;;;1.92;;
17631;SDS011;8934;51.194;17.150;2023-07-13T15:42:34;1.83;;;1.73;;
17631;SDS011;8934;51.194;17.150;2023-07-13T15:45:24;2.10;;;1.90;;
17631;SDS011;8934;51.194;17.150;2023-07-13T15:48:15;2.40;;;1.80;;
17631;SDS011;8934;51.194;17.150;2023-07-13T15:51:05;3.97;;;1.92;;
17631;SDS011;8934;51.194;17.150;2023-07-13T15:54:02;2.75;;;1.67;;
17631;SDS011;8934;51.194;17.150;2023-07-13T15:56:51;2.28;;;2.08;;
17631;SDS011;8934;51.194;17.150;2023-07-13T15:59:40;4.00;;;2.10;;
17631;SDS011;8934;51.194;17.150;2023-07-13T16:02:28;4.28;;;2.30;;
17631;SDS011;8934;51.194;17.150;2023-07-13T16:05:17;2.75;;;1.77;;
17631;SDS011;8934;51.194;17.150;2023-07-13T16:08:12;2.50;;;2.10;;
17631;SDS011;8934;51.194;17.150;2023-07-13T16:11:09;2.00;;;1.73;;
17631;SDS011;8934;51.194;17.150;2023-07-13T16:14:05;3.80;;;2.20;;
17631;SDS011;8934;51.194;17.150;2023-07-13T16:16:53;3.60;;;2.05;;
17631;SDS011;8934;51.194;17.150;2023-07-13T16:19:42;2.13;;;1.95;;
17631;SDS011;8934;51.194;17.150;2023-07-13T16:22:31;2.35;;;1.92;;
17631;SDS011;8934;51.194;17.150;2023-07-13T16:25:20;2.33;;;2.00;;
17631;SDS011;8934;51.194;17.150;2023-07-13T16:28:10;2.75;;;2.15;;
17631;SDS011;8934;51.194;17.150;2023-07-13T16:30:58;3.45;;;1.95;;
17631;SDS011;8934;51.194;17.150;2023-07-13T16:33:48;3.58;;;1.88;;
17631;SDS011;8934;51.194;17.150;2023-07-13T16:36:35;2.55;;;2.22;;
17631;SDS011;8934;51.194;17.150;2023-07-13T16:39:25;4.68;;;2.63;;
17631;SDS011;8934;51.194;17.150;2023-07-13T16:42:13;2.55;;;2.15;;
17631;SDS011;8934;51.194;17.150;2023-07-13T16:45:01;3.38;;;2.67;;
17631;SDS011;8934;51.194;17.150;2023-07-13T16:47:49;7.13;;;2.88;;
17631;SDS011;8934;51.194;17.150;2023-07-13T16:50:37;5.10;;;2.72;;
17631;SDS011;8934;51.194;17.150;2023-07-13T16:53:28;4.05;;;2.40;;
17631;SDS011;8934;51.194;17.150;2023-07-13T16:56:19;4.65;;;2.65;;
17631;SDS011;8934;51.194;17.150;2023-07-13T16:59:09;4.05;;;2.60;;
17631;SDS011;8934;51.194;17.150;2023-07-13T17:02:01;2.70;;;2.13;;
17631;SDS011;8934;51.194;17.150;2023-07-13T17:05:00;3.03;;;2.40;;
17631;SDS011;8934;51.194;17.150;2023-07-13T17:07:48;2.72;;;2.17;;
17631;SDS011;8934;51.194;17.150;2023-07-13T17:10:36;2.15;;;1.95;;